sensor_id;sensor_type;location;lat;lon;timestamp;temperature;humidity
54842;DHT22;40741;45.002;7.536;2022-12-29T00:01:55;3.80;99.90
54842;DHT22;40741;45.002;7.536;2022-12-29T00:04:20;3.80;99.90
54842;DHT22;40741;45.002;7.536;2022-12-29T00:06:47;3.90;99.90
54842;DHT22;40741;45.002;7.536;2022-12-29T00:09:15;3.90;99.90
54842;DHT22;40741;45.002;7.536;2022-12-29T00:11:41;3.90;99.90
54842;DHT22;40741;45.002;7.536;2022-12-29T00:14:09;3.90;99.90
54842;DHT22;40741;45.002;7.536;2022-12-29T00:16:53;3.90;99.90
54842;DHT22;40741;45.002;7.536;2022-12-29T00:19:19;4.00;99.90
54842;DHT22;40741;45.002;7.536;2022-12-29T00:22:03;4.00;99.90
54842;DHT22;40741;45.002;7.536;2022-12-29T00:24:47;4.10;99.90
54842;DHT22;40741;45.002;7.536;2022-12-29T00:27:18;4.20;99.90
54842;DHT22;40741;45.002;7.536;2022-12-29T00:30:11;4.20;99.90
54842;DHT22;40741;45.002;7.536;2022-12-29T00:32:56;4.20;99.90
54842;DHT22;40741;45.002;7.536;2022-12-29T00:35:46;4.10;99.90
54842;DHT22;40741;45.002;7.536;2022-12-29T00:38:16;4.00;99.90
54842;DHT22;40741;45.002;7.536;2022-12-29T00:41:00;4.00;99.90
54842;DHT22;40741;45.002;7.536;2022-12-29T00:43:44;3.90;99.90
54842;DHT22;40741;45.002;7.536;2022-12-29T00:46:28;3.80;99.90
54842;DHT22;40741;45.002;7.536;2022-12-29T00:48:54;3.80;99.90
54842;DHT22;40741;45.002;7.536;2022-12-29T00:51:38;3.80;99.90
54842;DHT22;40741;45.002;7.536;2022-12-29T00:54:04;3.70;99.90
54842;DHT22;40741;45.002;7.536;2022-12-29T00:56:29;3.40;99.90
54842;DHT22;40741;45.002;7.536;2022-12-29T00:58:55;3.20;99.90
54842;DHT22;40741;45.002;7.536;2022-12-29T01:01:20;3.10;99.90
54842;DHT22;40741;45.002;7.536;2022-12-29T01:03:46;3.10;99.90
54842;DHT22;40741;45.002;7.536;2022-12-29T01:06:12;3.20;99.90
54842;DHT22;40741;45.002;7.536;2022-12-29T01:08:37;3.20;99.90
54842;DHT22;40741;45.002;7.536;2022-12-29T01:11:08;3.30;99.90
54842;DHT22;40741;45.002;7.536;2022-12-29T01:13:34;3.30;99.90
54842;DHT22;40741;45.002;7.536;2022-12-29T01:16:00;3.20;99.90
54842;DHT22;40741;45.002;7.536;2022-12-29T01:18:26;3.20;99.90
54842;DHT22;40741;45.002;7.536;2022-12-29T01:21:02;3.20;99.90
54842;DHT22;40741;45.002;7.536;2022-12-29T01:23:28;3.10;99.90
54842;DHT22;40741;45.002;7.536;2022-12-29T01:25:54;3.20;99.90
54842;DHT22;40741;45.002;7.536;2022-12-29T01:28:20;3.10;99.90
54842;DHT22;40741;45.002;7.536;2022-12-29T01:30:45;3.10;99.90
54842;DHT22;40741;45.002;7.536;2022-12-29T01:33:11;3.10;99.90
54842;DHT22;40741;45.002;7.536;2022-12-29T01:35:36;3.00;99.90
54842;DHT22;40741;45.002;7.536;2022-12-29T01:38:02;2.90;99.90
54842;DHT22;40741;45.002;7.536;2022-12-29T01:40:28;2.80;99.90
54842;DHT22;40741;45.002;7.536;2022-12-29T01:42:53;2.80;99.90
54842;DHT22;40741;45.002;7.536;2022-12-29T01:45:19;2.90;99.90
54842;DHT22;40741;45.002;7.536;2022-12-29T01:47:52;2.80;99.90
54842;DHT22;40741;45.002;7.536;2022-12-29T01:50:38;2.80;99.90
54842;DHT22;40741;45.002;7.536;2022-12-29T01:53:09;2.80;99.90
54842;DHT22;40741;45.002;7.536;2022-12-29T01:55:44;2.70;99.90
54842;DHT22;40741;45.002;7.536;2022-12-29T01:58:13;2.70;99.90
54842;DHT22;40741;45.002;7.536;2022-12-29T02:00:40;2.70;99.90
54842;DHT22;40741;45.002;7.536;2022-12-29T02:03:06;2.60;99.90
54842;DHT22;40741;45.002;7.536;2022-12-29T02:05:52;2.60;99.90
54842;DHT22;40741;45.002;7.536;2022-12-29T02:08:23;2.60;99.90
54842;DHT22;40741;45.002;7.536;2022-12-29T02:10:50;2.60;99.90
54842;DHT22;40741;45.002;7.536;2022-12-29T02:13:16;2.60;99.90
54842;DHT22;40741;45.002;7.536;2022-12-29T02:21:26;2.60;99.90
54842;DHT22;40741;45.002;7.536;2022-12-29T02:27:09;2.70;99.90
54842;DHT22;40741;45.002;7.536;2022-12-29T02:35:15;2.70;99.90
54842;DHT22;40741;45.002;7.536;2022-12-29T02:40:29;2.60;99.90
54842;DHT22;40741;45.002;7.536;2022-12-29T02:43:23;2.50;99.90
54842;DHT22;40741;45.002;7.536;2022-12-29T02:48:52;2.50;99.90
54842;DHT22;40741;45.002;7.536;2022-12-29T02:51:35;2.50;99.90
54842;DHT22;40741;45.002;7.536;2022-12-29T02:54:03;2.50;99.90
54842;DHT22;40741;45.002;7.536;2022-12-29T02:56:50;2.50;99.90
54842;DHT22;40741;45.002;7.536;2022-12-29T02:59:16;2.60;99.90
54842;DHT22;40741;45.002;7.536;2022-12-29T03:13:39;2.60;99.90
54842;DHT22;40741;45.002;7.536;2022-12-29T03:16:36;2.60;99.90
54842;DHT22;40741;45.002;7.536;2022-12-29T03:21:46;2.60;99.90
54842;DHT22;40741;45.002;7.536;2022-12-29T03:24:36;2.70;99.90
54842;DHT22;40741;45.002;7.536;2022-12-29T03:27:05;2.70;99.90
54842;DHT22;40741;45.002;7.536;2022-12-29T03:29:36;2.60;99.90
54842;DHT22;40741;45.002;7.536;2022-12-29T03:32:05;2.60;99.90
54842;DHT22;40741;45.002;7.536;2022-12-29T03:34:33;2.60;99.90
54842;DHT22;40741;45.002;7.536;2022-12-29T03:37:10;2.50;99.90
54842;DHT22;40741;45.002;7.536;2022-12-29T03:39:37;2.60;99.90
54842;DHT22;40741;45.002;7.536;2022-12-29T03:42:05;2.60;99.90
54842;DHT22;40741;45.002;7.536;2022-12-29T03:44:39;2.60;99.90
54842;DHT22;40741;45.002;7.536;2022-12-29T03:47:06;2.60;99.90
54842;DHT22;40741;45.002;7.536;2022-12-29T03:49:32;2.60;99.90
54842;DHT22;40741;45.002;7.536;2022-12-29T03:51:58;2.60;99.90
54842;DHT22;40741;45.002;7.536;2022-12-29T03:54:24;2.60;99.90
54842;DHT22;40741;45.002;7.536;2022-12-29T03:56:49;2.60;99.90
54842;DHT22;40741;45.002;7.536;2022-12-29T03:59:15;2.60;99.90
54842;DHT22;40741;45.002;7.536;2022-12-29T04:01:40;2.60;99.90
54842;DHT22;40741;45.002;7.536;2022-12-29T04:04:06;2.70;99.90
54842;DHT22;40741;45.002;7.536;2022-12-29T04:06:32;2.70;99.90
54842;DHT22;40741;45.002;7.536;2022-12-29T04:08:57;2.70;99.90
54842;DHT22;40741;45.002;7.536;2022-12-29T04:11:23;2.60;99.90
54842;DHT22;40741;45.002;7.536;2022-12-29T04:13:49;2.60;99.90
54842;DHT22;40741;45.002;7.536;2022-12-29T04:16:15;2.60;99.90
54842;DHT22;40741;45.002;7.536;2022-12-29T04:18:40;2.60;99.90
54842;DHT22;40741;45.002;7.536;2022-12-29T04:21:06;2.50;99.90
54842;DHT22;40741;45.002;7.536;2022-12-29T04:23:37;2.50;99.90
54842;DHT22;40741;45.002;7.536;2022-12-29T04:26:04;2.50;99.90
54842;DHT22;40741;45.002;7.536;2022-12-29T04:28:31;2.50;99.90
54842;DHT22;40741;45.002;7.536;2022-12-29T04:30:57;2.60;99.90
54842;DHT22;40741;45.002;7.536;2022-12-29T04:33:23;2.60;99.90
54842;DHT22;40741;45.002;7.536;2022-12-29T04:35:49;2.60;99.90
54842;DHT22;40741;45.002;7.536;2022-12-29T04:38:15;2.60;99.90
54842;DHT22;40741;45.002;7.536;2022-12-29T04:40:43;2.60;99.90
54842;DHT22;40741;45.002;7.536;2022-12-29T04:43:10;2.60;99.90
54842;DHT22;40741;45.002;7.536;2022-12-29T04:45:36;2.50;99.90
54842;DHT22;40741;45.002;7.536;2022-12-29T04:48:01;2.50;99.90
54842;DHT22;40741;45.002;7.536;2022-12-29T04:50:27;2.50;99.90
54842;DHT22;40741;45.002;7.536;2022-12-29T04:52:53;2.50;99.90
54842;DHT22;40741;45.002;7.536;2022-12-29T04:55:19;2.60;99.90
54842;DHT22;40741;45.002;7.536;2022-12-29T04:57:44;2.60;99.90
54842;DHT22;40741;45.002;7.536;2022-12-29T05:00:10;2.60;99.90
54842;DHT22;40741;45.002;7.536;2022-12-29T05:02:37;2.60;99.90
54842;DHT22;40741;45.002;7.536;2022-12-29T05:05:03;2.50;99.90
54842;DHT22;40741;45.002;7.536;2022-12-29T05:07:29;2.50;99.90
54842;DHT22;40741;45.002;7.536;2022-12-29T05:09:54;2.40;99.90
54842;DHT22;40741;45.002;7.536;2022-12-29T05:12:20;2.40;99.90
54842;DHT22;40741;45.002;7.536;2022-12-29T05:14:46;2.30;99.90
54842;DHT22;40741;45.002;7.536;2022-12-29T05:17:11;2.30;99.90
54842;DHT22;40741;45.002;7.536;2022-12-29T05:19:37;2.20;99.90
54842;DHT22;40741;45.002;7.536;2022-12-29T05:22:03;2.20;99.90
54842;DHT22;40741;45.002;7.536;2022-12-29T05:24:29;2.20;99.90
54842;DHT22;40741;45.002;7.536;2022-12-29T05:26:55;2.20;99.90
54842;DHT22;40741;45.002;7.536;2022-12-29T05:29:21;2.10;99.90
54842;DHT22;40741;45.002;7.536;2022-12-29T05:31:46;2.20;99.90
54842;DHT22;40741;45.002;7.536;2022-12-29T05:34:12;2.20;99.90
54842;DHT22;40741;45.002;7.536;2022-12-29T05:36:51;2.20;99.90
54842;DHT22;40741;45.002;7.536;2022-12-29T05:39:16;2.20;99.90
54842;DHT22;40741;45.002;7.536;2022-12-29T05:41:42;2.20;99.90
54842;DHT22;40741;45.002;7.536;2022-12-29T05:44:09;2.30;99.90
54842;DHT22;40741;45.002;7.536;2022-12-29T05:46:35;2.30;99.90
54842;DHT22;40741;45.002;7.536;2022-12-29T05:49:00;2.20;99.90
54842;DHT22;40741;45.002;7.536;2022-12-29T05:51:26;2.10;99.90
54842;DHT22;40741;45.002;7.536;2022-12-29T05:53:51;2.10;99.90
54842;DHT22;40741;45.002;7.536;2022-12-29T05:56:17;2.20;99.90
54842;DHT22;40741;45.002;7.536;2022-12-29T05:58:43;2.20;99.90
54842;DHT22;40741;45.002;7.536;2022-12-29T06:01:09;2.20;99.90
54842;DHT22;40741;45.002;7.536;2022-12-29T06:03:34;2.20;99.90
54842;DHT22;40741;45.002;7.536;2022-12-29T06:06:00;2.30;99.90
54842;DHT22;40741;45.002;7.536;2022-12-29T06:08:25;2.50;99.90
54842;DHT22;40741;45.002;7.536;2022-12-29T06:10:51;2.50;99.90
54842;DHT22;40741;45.002;7.536;2022-12-29T06:13:17;2.50;99.90
54842;DHT22;40741;45.002;7.536;2022-12-29T06:15:42;2.50;99.90
54842;DHT22;40741;45.002;7.536;2022-12-29T06:18:08;2.50;99.90
54842;DHT22;40741;45.002;7.536;2022-12-29T06:20:34;2.50;99.90
54842;DHT22;40741;45.002;7.536;2022-12-29T06:22:59;2.60;99.90
54842;DHT22;40741;45.002;7.536;2022-12-29T06:25:25;2.50;99.90
54842;DHT22;40741;45.002;7.536;2022-12-29T06:27:50;2.50;99.90
54842;DHT22;40741;45.002;7.536;2022-12-29T06:30:16;2.50;99.90
54842;DHT22;40741;45.002;7.536;2022-12-29T06:32:42;2.50;99.90
54842;DHT22;40741;45.002;7.536;2022-12-29T06:35:08;2.50;99.90
54842;DHT22;40741;45.002;7.536;2022-12-29T06:37:34;2.50;99.90
54842;DHT22;40741;45.002;7.536;2022-12-29T06:40:00;2.50;99.90
54842;DHT22;40741;45.002;7.536;2022-12-29T06:42:25;2.50;99.90
54842;DHT22;40741;45.002;7.536;2022-12-29T06:44:51;2.40;99.90
54842;DHT22;40741;45.002;7.536;2022-12-29T06:47:17;2.40;99.90
54842;DHT22;40741;45.002;7.536;2022-12-29T06:49:44;2.40;99.90
54842;DHT22;40741;45.002;7.536;2022-12-29T06:52:10;2.30;99.90
54842;DHT22;40741;45.002;7.536;2022-12-29T06:54:36;2.20;99.90
54842;DHT22;40741;45.002;7.536;2022-12-29T06:57:01;2.20;99.90
54842;DHT22;40741;45.002;7.536;2022-12-29T06:59:27;2.20;99.90
54842;DHT22;40741;45.002;7.536;2022-12-29T07:01:53;2.10;99.90
54842;DHT22;40741;45.002;7.536;2022-12-29T07:04:18;2.10;99.90
54842;DHT22;40741;45.002;7.536;2022-12-29T07:06:44;2.00;99.90
54842;DHT22;40741;45.002;7.536;2022-12-29T07:09:10;2.00;99.90
54842;DHT22;40741;45.002;7.536;2022-12-29T07:11:36;2.00;99.90
54842;DHT22;40741;45.002;7.536;2022-12-29T07:14:02;2.00;99.90
54842;DHT22;40741;45.002;7.536;2022-12-29T07:16:28;2.00;99.90
54842;DHT22;40741;45.002;7.536;2022-12-29T07:18:55;2.00;99.90
54842;DHT22;40741;45.002;7.536;2022-12-29T07:21:21;2.00;99.90
54842;DHT22;40741;45.002;7.536;2022-12-29T07:23:46;2.00;99.90
54842;DHT22;40741;45.002;7.536;2022-12-29T07:26:14;2.00;99.90
54842;DHT22;40741;45.002;7.536;2022-12-29T07:28:40;2.00;99.90
54842;DHT22;40741;45.002;7.536;2022-12-29T07:31:14;2.00;99.90
54842;DHT22;40741;45.002;7.536;2022-12-29T07:33:41;2.00;99.90
54842;DHT22;40741;45.002;7.536;2022-12-29T07:36:06;2.10;99.90
54842;DHT22;40741;45.002;7.536;2022-12-29T07:38:32;2.10;99.90
54842;DHT22;40741;45.002;7.536;2022-12-29T07:40:58;2.10;99.90
54842;DHT22;40741;45.002;7.536;2022-12-29T07:43:24;2.10;99.90
54842;DHT22;40741;45.002;7.536;2022-12-29T07:45:49;2.10;99.90
54842;DHT22;40741;45.002;7.536;2022-12-29T07:48:15;2.10;99.90
54842;DHT22;40741;45.002;7.536;2022-12-29T07:50:41;2.20;99.90
54842;DHT22;40741;45.002;7.536;2022-12-29T07:53:06;2.20;99.90
54842;DHT22;40741;45.002;7.536;2022-12-29T07:55:32;2.40;99.90
54842;DHT22;40741;45.002;7.536;2022-12-29T07:57:58;2.40;99.90
54842;DHT22;40741;45.002;7.536;2022-12-29T08:00:23;2.50;99.90
54842;DHT22;40741;45.002;7.536;2022-12-29T08:02:49;2.50;99.90
54842;DHT22;40741;45.002;7.536;2022-12-29T08:05:15;2.40;99.90
54842;DHT22;40741;45.002;7.536;2022-12-29T08:07:43;2.50;99.90
54842;DHT22;40741;45.002;7.536;2022-12-29T08:10:09;2.60;99.90
54842;DHT22;40741;45.002;7.536;2022-12-29T08:12:35;2.80;99.90
54842;DHT22;40741;45.002;7.536;2022-12-29T08:15:00;2.90;99.90
54842;DHT22;40741;45.002;7.536;2022-12-29T08:17:26;3.00;99.90
54842;DHT22;40741;45.002;7.536;2022-12-29T08:19:51;3.00;99.90
54842;DHT22;40741;45.002;7.536;2022-12-29T08:22:17;3.00;99.90
54842;DHT22;40741;45.002;7.536;2022-12-29T08:24:43;3.00;99.90
54842;DHT22;40741;45.002;7.536;2022-12-29T08:27:08;3.20;99.90
54842;DHT22;40741;45.002;7.536;2022-12-29T08:29:34;3.20;99.90
54842;DHT22;40741;45.002;7.536;2022-12-29T08:32:00;3.20;99.90
54842;DHT22;40741;45.002;7.536;2022-12-29T08:34:26;3.10;99.90
54842;DHT22;40741;45.002;7.536;2022-12-29T08:36:51;3.10;99.90
54842;DHT22;40741;45.002;7.536;2022-12-29T08:39:17;3.20;99.90
54842;DHT22;40741;45.002;7.536;2022-12-29T08:41:42;3.40;99.90
54842;DHT22;40741;45.002;7.536;2022-12-29T08:44:08;3.60;99.90
54842;DHT22;40741;45.002;7.536;2022-12-29T08:46:34;3.70;99.90
54842;DHT22;40741;45.002;7.536;2022-12-29T08:48:59;3.80;99.90
54842;DHT22;40741;45.002;7.536;2022-12-29T08:51:25;3.80;99.90
54842;DHT22;40741;45.002;7.536;2022-12-29T08:53:51;3.90;99.90
54842;DHT22;40741;45.002;7.536;2022-12-29T08:56:16;3.90;99.90
54842;DHT22;40741;45.002;7.536;2022-12-29T08:58:42;3.90;99.90
54842;DHT22;40741;45.002;7.536;2022-12-29T09:01:09;4.00;99.90
54842;DHT22;40741;45.002;7.536;2022-12-29T09:03:35;4.00;99.90
54842;DHT22;40741;45.002;7.536;2022-12-29T09:06:00;4.10;99.90
54842;DHT22;40741;45.002;7.536;2022-12-29T09:08:26;4.20;99.90
54842;DHT22;40741;45.002;7.536;2022-12-29T09:10:52;4.20;99.90
54842;DHT22;40741;45.002;7.536;2022-12-29T09:13:18;4.30;99.90
54842;DHT22;40741;45.002;7.536;2022-12-29T09:15:44;4.30;99.90
54842;DHT22;40741;45.002;7.536;2022-12-29T09:18:11;4.40;99.90
54842;DHT22;40741;45.002;7.536;2022-12-29T09:20:37;4.40;99.90
54842;DHT22;40741;45.002;7.536;2022-12-29T09:23:03;4.50;99.90
54842;DHT22;40741;45.002;7.536;2022-12-29T09:25:31;4.50;99.90
54842;DHT22;40741;45.002;7.536;2022-12-29T09:27:57;4.50;99.90
54842;DHT22;40741;45.002;7.536;2022-12-29T09:30:23;4.60;99.90
54842;DHT22;40741;45.002;7.536;2022-12-29T09:32:49;4.60;99.90
54842;DHT22;40741;45.002;7.536;2022-12-29T09:35:15;4.60;99.90
54842;DHT22;40741;45.002;7.536;2022-12-29T09:37:42;4.60;99.90
54842;DHT22;40741;45.002;7.536;2022-12-29T09:40:26;4.70;99.90
54842;DHT22;40741;45.002;7.536;2022-12-29T09:46:10;4.80;99.90
54842;DHT22;40741;45.002;7.536;2022-12-29T09:48:41;4.80;99.90
54842;DHT22;40741;45.002;7.536;2022-12-29T09:51:13;4.70;99.90
54842;DHT22;40741;45.002;7.536;2022-12-29T09:54:02;4.70;99.90
54842;DHT22;40741;45.002;7.536;2022-12-29T09:56:29;4.80;99.90
54842;DHT22;40741;45.002;7.536;2022-12-29T09:59:21;4.90;99.90
54842;DHT22;40741;45.002;7.536;2022-12-29T10:01:56;4.80;99.90
54842;DHT22;40741;45.002;7.536;2022-12-29T10:04:26;4.80;99.90
54842;DHT22;40741;45.002;7.536;2022-12-29T10:07:07;4.90;99.90
54842;DHT22;40741;45.002;7.536;2022-12-29T10:23:28;5.00;99.90
54842;DHT22;40741;45.002;7.536;2022-12-29T10:25:56;5.00;99.90
54842;DHT22;40741;45.002;7.536;2022-12-29T10:28:30;5.00;99.90
54842;DHT22;40741;45.002;7.536;2022-12-29T10:30:58;5.00;99.90
54842;DHT22;40741;45.002;7.536;2022-12-29T10:33:35;5.00;99.90
54842;DHT22;40741;45.002;7.536;2022-12-29T10:36:18;5.00;99.90
54842;DHT22;40741;45.002;7.536;2022-12-29T10:38:50;5.10;99.90
54842;DHT22;40741;45.002;7.536;2022-12-29T10:41:18;5.10;99.90
54842;DHT22;40741;45.002;7.536;2022-12-29T10:43:48;5.10;99.90
54842;DHT22;40741;45.002;7.536;2022-12-29T10:46:24;5.30;99.90
54842;DHT22;40741;45.002;7.536;2022-12-29T10:48:50;5.40;99.90
54842;DHT22;40741;45.002;7.536;2022-12-29T10:51:54;5.50;99.90
54842;DHT22;40741;45.002;7.536;2022-12-29T10:57:12;5.80;99.90
54842;DHT22;40741;45.002;7.536;2022-12-29T10:59:39;5.90;99.90
54842;DHT22;40741;45.002;7.536;2022-12-29T11:07:05;6.40;99.90
54842;DHT22;40741;45.002;7.536;2022-12-29T11:09:34;6.40;99.90
54842;DHT22;40741;45.002;7.536;2022-12-29T11:14:43;6.30;99.90
54842;DHT22;40741;45.002;7.536;2022-12-29T11:17:15;6.50;99.90
54842;DHT22;40741;45.002;7.536;2022-12-29T11:19:42;6.60;99.90
54842;DHT22;40741;45.002;7.536;2022-12-29T11:22:26;6.70;99.90
54842;DHT22;40741;45.002;7.536;2022-12-29T11:24:53;6.60;99.90
54842;DHT22;40741;45.002;7.536;2022-12-29T11:27:20;6.60;99.90
54842;DHT22;40741;45.002;7.536;2022-12-29T11:29:49;6.70;99.90
54842;DHT22;40741;45.002;7.536;2022-12-29T11:32:26;6.60;99.90
54842;DHT22;40741;45.002;7.536;2022-12-29T11:34:51;6.50;99.90
54842;DHT22;40741;45.002;7.536;2022-12-29T11:37:18;6.50;99.90
54842;DHT22;40741;45.002;7.536;2022-12-29T11:42:30;6.50;99.90
54842;DHT22;40741;45.002;7.536;2022-12-29T11:45:05;6.50;99.90
54842;DHT22;40741;45.002;7.536;2022-12-29T11:47:32;6.60;99.90
54842;DHT22;40741;45.002;7.536;2022-12-29T11:50:04;6.60;99.90
54842;DHT22;40741;45.002;7.536;2022-12-29T11:52:35;6.70;99.90
54842;DHT22;40741;45.002;7.536;2022-12-29T11:55:06;6.80;99.90
54842;DHT22;40741;45.002;7.536;2022-12-29T11:57:33;6.90;99.90
54842;DHT22;40741;45.002;7.536;2022-12-29T12:00:14;7.00;99.90
54842;DHT22;40741;45.002;7.536;2022-12-29T12:03:03;7.10;99.90
54842;DHT22;40741;45.002;7.536;2022-12-29T12:08:17;7.20;99.90
54842;DHT22;40741;45.002;7.536;2022-12-29T12:11:07;7.30;99.90
54842;DHT22;40741;45.002;7.536;2022-12-29T12:13:53;7.40;99.90
54842;DHT22;40741;45.002;7.536;2022-12-29T12:16:43;7.40;99.90
54842;DHT22;40741;45.002;7.536;2022-12-29T12:21:46;7.70;99.90
54842;DHT22;40741;45.002;7.536;2022-12-29T12:24:29;7.70;99.90
54842;DHT22;40741;45.002;7.536;2022-12-29T12:27:10;7.80;99.90
54842;DHT22;40741;45.002;7.536;2022-12-29T12:29:43;8.00;99.90
54842;DHT22;40741;45.002;7.536;2022-12-29T12:32:17;8.10;99.90
54842;DHT22;40741;45.002;7.536;2022-12-29T12:34:45;8.30;99.90
54842;DHT22;40741;45.002;7.536;2022-12-29T12:38:06;8.20;99.90
54842;DHT22;40741;45.002;7.536;2022-12-29T12:51:33;8.30;99.90
54842;DHT22;40741;45.002;7.536;2022-12-29T12:57:22;8.00;99.90
54842;DHT22;40741;45.002;7.536;2022-12-29T13:00:14;7.80;99.90
54842;DHT22;40741;45.002;7.536;2022-12-29T13:11:29;8.10;99.90
54842;DHT22;40741;45.002;7.536;2022-12-29T13:17:45;7.90;99.90
54842;DHT22;40741;45.002;7.536;2022-12-29T13:20:20;7.80;99.90
54842;DHT22;40741;45.002;7.536;2022-12-29T13:23:09;7.80;99.90
54842;DHT22;40741;45.002;7.536;2022-12-29T13:26:37;8.00;99.90
54842;DHT22;40741;45.002;7.536;2022-12-29T13:29:08;8.40;99.90
54842;DHT22;40741;45.002;7.536;2022-12-29T13:31:48;8.60;99.90
54842;DHT22;40741;45.002;7.536;2022-12-29T13:34:28;8.50;99.90
54842;DHT22;40741;45.002;7.536;2022-12-29T13:37:02;8.40;99.90
54842;DHT22;40741;45.002;7.536;2022-12-29T13:39:33;8.40;99.90
54842;DHT22;40741;45.002;7.536;2022-12-29T13:42:02;8.40;99.90
54842;DHT22;40741;45.002;7.536;2022-12-29T13:44:33;8.50;99.90
54842;DHT22;40741;45.002;7.536;2022-12-29T13:47:05;8.50;99.90
54842;DHT22;40741;45.002;7.536;2022-12-29T13:49:34;8.50;99.90
54842;DHT22;40741;45.002;7.536;2022-12-29T13:52:13;8.50;99.90
54842;DHT22;40741;45.002;7.536;2022-12-29T14:00:06;8.50;99.90
54842;DHT22;40741;45.002;7.536;2022-12-29T14:07:44;8.50;99.90
54842;DHT22;40741;45.002;7.536;2022-12-29T14:10:49;8.50;99.90
54842;DHT22;40741;45.002;7.536;2022-12-29T14:13:21;8.50;99.90
54842;DHT22;40741;45.002;7.536;2022-12-29T14:15:57;8.50;99.90
54842;DHT22;40741;45.002;7.536;2022-12-29T14:18:28;8.50;99.90
54842;DHT22;40741;45.002;7.536;2022-12-29T14:21:01;8.40;99.90
54842;DHT22;40741;45.002;7.536;2022-12-29T14:23:39;8.80;99.90
54842;DHT22;40741;45.002;7.536;2022-12-29T14:26:12;8.50;99.90
54842;DHT22;40741;45.002;7.536;2022-12-29T14:28:45;8.40;99.90
54842;DHT22;40741;45.002;7.536;2022-12-29T14:33:40;8.40;99.90
54842;DHT22;40741;45.002;7.536;2022-12-29T14:36:26;8.30;99.90
54842;DHT22;40741;45.002;7.536;2022-12-29T14:38:52;8.20;99.90
54842;DHT22;40741;45.002;7.536;2022-12-29T14:41:24;8.20;99.90
54842;DHT22;40741;45.002;7.536;2022-12-29T14:44:01;8.20;99.90
54842;DHT22;40741;45.002;7.536;2022-12-29T14:46:54;8.20;99.90
54842;DHT22;40741;45.002;7.536;2022-12-29T14:49:26;8.30;99.90
54842;DHT22;40741;45.002;7.536;2022-12-29T14:51:55;8.30;99.90
54842;DHT22;40741;45.002;7.536;2022-12-29T14:57:16;8.20;99.90
54842;DHT22;40741;45.002;7.536;2022-12-29T14:59:45;8.10;99.90
54842;DHT22;40741;45.002;7.536;2022-12-29T15:02:20;8.10;99.90
54842;DHT22;40741;45.002;7.536;2022-12-29T15:04:47;8.10;99.90
54842;DHT22;40741;45.002;7.536;2022-12-29T15:07:14;8.10;99.90
54842;DHT22;40741;45.002;7.536;2022-12-29T15:09:50;8.10;99.90
54842;DHT22;40741;45.002;7.536;2022-12-29T15:13:04;8.00;99.90
54842;DHT22;40741;45.002;7.536;2022-12-29T15:15:26;8.00;99.90
54842;DHT22;40741;45.002;7.536;2022-12-29T15:17:52;7.90;99.90
54842;DHT22;40741;45.002;7.536;2022-12-29T15:20:27;7.90;99.90
54842;DHT22;40741;45.002;7.536;2022-12-29T15:22:59;7.80;99.90
54842;DHT22;40741;45.002;7.536;2022-12-29T15:25:26;7.80;99.90
54842;DHT22;40741;45.002;7.536;2022-12-29T15:28:00;7.70;99.90
54842;DHT22;40741;45.002;7.536;2022-12-29T15:30:26;7.70;99.90
54842;DHT22;40741;45.002;7.536;2022-12-29T15:32:52;7.60;99.90
54842;DHT22;40741;45.002;7.536;2022-12-29T15:35:36;7.60;99.90
54842;DHT22;40741;45.002;7.536;2022-12-29T15:38:16;7.50;99.90
54842;DHT22;40741;45.002;7.536;2022-12-29T15:40:44;7.50;99.90
54842;DHT22;40741;45.002;7.536;2022-12-29T15:46:06;7.40;99.90
54842;DHT22;40741;45.002;7.536;2022-12-29T15:48:32;7.30;99.90
54842;DHT22;40741;45.002;7.536;2022-12-29T15:50:58;7.30;99.90
54842;DHT22;40741;45.002;7.536;2022-12-29T15:53:30;7.30;99.90
54842;DHT22;40741;45.002;7.536;2022-12-29T15:56:05;7.30;99.90
54842;DHT22;40741;45.002;7.536;2022-12-29T15:58:43;7.20;99.90
54842;DHT22;40741;45.002;7.536;2022-12-29T16:01:29;7.20;99.90
54842;DHT22;40741;45.002;7.536;2022-12-29T16:03:56;7.20;99.90
54842;DHT22;40741;45.002;7.536;2022-12-29T16:06:29;7.10;99.90
54842;DHT22;40741;45.002;7.536;2022-12-29T16:08:57;7.10;99.90
54842;DHT22;40741;45.002;7.536;2022-12-29T16:11:37;7.00;99.90
54842;DHT22;40741;45.002;7.536;2022-12-29T16:14:14;7.00;99.90
54842;DHT22;40741;45.002;7.536;2022-12-29T16:16:42;6.90;99.90
54842;DHT22;40741;45.002;7.536;2022-12-29T16:19:35;6.90;99.90
54842;DHT22;40741;45.002;7.536;2022-12-29T16:22:02;6.70;99.90
54842;DHT22;40741;45.002;7.536;2022-12-29T16:24:31;6.70;99.90
54842;DHT22;40741;45.002;7.536;2022-12-29T16:27:30;6.70;99.90
54842;DHT22;40741;45.002;7.536;2022-12-29T16:29:57;6.60;99.90
54842;DHT22;40741;45.002;7.536;2022-12-29T16:32:29;6.60;99.90
54842;DHT22;40741;45.002;7.536;2022-12-29T16:35:18;6.50;99.90
54842;DHT22;40741;45.002;7.536;2022-12-29T16:37:45;6.40;99.90
54842;DHT22;40741;45.002;7.536;2022-12-29T16:48:32;7.60;99.90
54842;DHT22;40741;45.002;7.536;2022-12-29T16:51:13;6.70;99.90
54842;DHT22;40741;45.002;7.536;2022-12-29T16:53:41;6.40;99.90
54842;DHT22;40741;45.002;7.536;2022-12-29T16:56:17;6.20;99.90
54842;DHT22;40741;45.002;7.536;2022-12-29T16:58:51;6.10;99.90
54842;DHT22;40741;45.002;7.536;2022-12-29T17:01:20;6.00;99.90
54842;DHT22;40741;45.002;7.536;2022-12-29T17:03:50;5.90;99.90
54842;DHT22;40741;45.002;7.536;2022-12-29T17:06:18;5.90;99.90
54842;DHT22;40741;45.002;7.536;2022-12-29T17:08:45;5.90;99.90
54842;DHT22;40741;45.002;7.536;2022-12-29T17:11:33;5.80;99.90
54842;DHT22;40741;45.002;7.536;2022-12-29T17:16:52;5.80;99.90
54842;DHT22;40741;45.002;7.536;2022-12-29T17:19:20;5.80;99.90
54842;DHT22;40741;45.002;7.536;2022-12-29T17:21:48;5.80;99.90
54842;DHT22;40741;45.002;7.536;2022-12-29T17:24:16;5.90;99.90
54842;DHT22;40741;45.002;7.536;2022-12-29T17:26:44;5.80;99.90
54842;DHT22;40741;45.002;7.536;2022-12-29T17:29:18;5.80;99.90
54842;DHT22;40741;45.002;7.536;2022-12-29T17:31:44;5.80;99.90
54842;DHT22;40741;45.002;7.536;2022-12-29T17:34:12;5.80;99.90
54842;DHT22;40741;45.002;7.536;2022-12-29T17:36:38;5.80;99.90
54842;DHT22;40741;45.002;7.536;2022-12-29T17:39:05;5.80;99.90
54842;DHT22;40741;45.002;7.536;2022-12-29T17:41:33;5.80;99.90
54842;DHT22;40741;45.002;7.536;2022-12-29T17:44:00;5.70;99.90
54842;DHT22;40741;45.002;7.536;2022-12-29T17:46:26;5.60;99.90
54842;DHT22;40741;45.002;7.536;2022-12-29T17:48:52;5.60;99.90
54842;DHT22;40741;45.002;7.536;2022-12-29T17:51:19;5.60;99.90
54842;DHT22;40741;45.002;7.536;2022-12-29T17:53:45;5.70;99.90
54842;DHT22;40741;45.002;7.536;2022-12-29T17:56:11;5.80;99.90
54842;DHT22;40741;45.002;7.536;2022-12-29T17:58:36;5.80;99.90
54842;DHT22;40741;45.002;7.536;2022-12-29T18:01:03;5.80;99.90
54842;DHT22;40741;45.002;7.536;2022-12-29T18:03:36;5.80;99.90
54842;DHT22;40741;45.002;7.536;2022-12-29T18:06:02;5.80;99.90
54842;DHT22;40741;45.002;7.536;2022-12-29T18:08:31;5.80;99.90
54842;DHT22;40741;45.002;7.536;2022-12-29T18:10:57;5.70;99.90
54842;DHT22;40741;45.002;7.536;2022-12-29T18:13:28;7.30;99.90